Time;durP1;ratioP1;P1;durP2;ratioP2;P2;SDS_P1;SDS_P2;PMS_P1;PMS_P2;Temp;Humidity;BMP_temperature;BMP_pressure;BME280_temperature;BME280_humidity;BME280_pressure;Samples;Min_cycle;Max_cycle;Signal;HPM_P1;HPM_P2
2021/05/11 00:00:51;;;;;;;6.18;3.20;;;16.00;99.90;;;;;;4994977;28;20391;-81
2021/05/11 00:03:17;;;;;;;4.43;3.40;;;16.00;99.90;;;;;;4977728;28;20502;-80
2021/05/11 00:05:43;;;;;;;10.20;3.92;;;16.00;99.90;;;;;;4995565;28;20049;-80
2021/05/11 00:08:08;;;;;;;8.98;3.13;;;16.00;99.90;;;;;;4994197;28;20041;-80
2021/05/11 00:10:34;;;;;;;7.03;3.45;;;16.00;99.90;;;;;;4995343;28;20706;-80
2021/05/11 00:13:00;;;;;;;5.25;3.10;;;16.00;99.90;;;;;;4995049;28;20068;-80
2021/05/11 00:15:25;;;;;;;5.05;2.75;;;16.00;99.90;;;;;;4994579;28;20505;-79
2021/05/11 00:17:51;;;;;;;8.50;2.92;;;16.10;99.90;;;;;;4994339;28;20112;-80
2021/05/11 00:20:19;;;;;;;4.43;2.88;;;16.10;99.90;;;;;;4994017;28;20057;-80
2021/05/11 00:22:45;;;;;;;5.35;3.00;;;16.10;99.90;;;;;;5006134;28;20036;-80
2021/05/11 00:25:11;;;;;;;9.35;3.20;;;16.10;99.90;;;;;;4993745;28;20446;-81
2021/05/11 00:27:37;;;;;;;10.85;2.83;;;16.00;99.90;;;;;;5006749;28;20037;-80
2021/05/11 00:30:04;;;;;;;12.05;3.33;;;16.00;99.90;;;;;;4994558;28;20022;-79
2021/05/11 00:32:30;;;;;;;7.50;3.30;;;16.00;99.90;;;;;;4993876;28;20034;-80
2021/05/11 00:34:56;;;;;;;3.45;2.67;;;16.00;99.90;;;;;;4994579;28;20030;-80
2021/05/11 00:37:21;;;;;;;6.70;2.80;;;16.00;99.90;;;;;;4976980;28;20161;-80
2021/05/11 00:39:47;;;;;;;4.78;3.22;;;16.00;99.90;;;;;;4994694;28;20059;-80
2021/05/11 00:42:13;;;;;;;13.80;2.80;;;16.10;99.90;;;;;;4987288;28;20518;-79
2021/05/11 00:44:39;;;;;;;7.43;2.58;;;16.10;99.90;;;;;;4975793;28;20061;-80
2021/05/11 00:47:04;;;;;;;11.10;2.60;;;16.20;99.90;;;;;;5007467;28;20030;-78
2021/05/11 00:49:32;;;;;;;3.17;2.47;;;16.10;99.90;;;;;;4993979;28;20101;-80
2021/05/11 00:51:59;;;;;;;10.68;2.95;;;16.10;99.90;;;;;;4994173;28;20066;-80
2021/05/11 00:54:25;;;;;;;3.20;2.55;;;16.10;99.90;;;;;;4994300;28;20014;-80
2021/05/11 00:56:52;;;;;;;4.70;2.47;;;16.00;99.90;;;;;;4993165;28;20038;-80
2021/05/11 00:59:29;;;;;;;5.72;2.50;;;16.00;99.90;;;;;;4994302;28;20471;-80
2021/05/11 01:01:58;;;;;;;5.72;2.70;;;16.00;99.90;;;;;;4994126;28;20117;-80
2021/05/11 01:04:25;;;;;;;5.75;2.58;;;16.00;99.90;;;;;;4979203;28;20041;-80
2021/05/11 01:06:51;;;;;;;5.40;2.30;;;16.10;99.90;;;;;;4993991;28;20446;-80
2021/05/11 01:09:17;;;;;;;5.85;2.70;;;16.10;99.90;;;;;;4995496;28;20453;-79
2021/05/11 01:11:45;;;;;;;8.50;3.30;;;16.00;99.90;;;;;;4987010;28;20155;-79
2021/05/11 01:14:11;;;;;;;13.60;2.20;;;16.00;99.90;;;;;;4993910;28;20038;-80
2021/05/11 01:16:38;;;;;;;3.05;2.03;;;16.00;99.90;;;;;;4993583;28;20077;-79
2021/05/11 01:19:11;;;;;;;5.65;2.40;;;16.00;99.90;;;;;;4993444;28;20109;-79
2021/05/11 01:26:56;;;;;;;7.45;2.38;;;16.10;99.90;;;;;;4993974;28;20034;-79
2021/05/11 01:56:39;;;;;;;4.57;2.28;;;16.30;99.90;;;;;;4985308;28;20460;-80
2021/05/11 02:23:00;;;;;;;6.07;2.20;;;16.50;99.90;;;;;;4994487;28;20054;-81
2021/05/11 02:25:26;;;;;;;11.48;2.80;;;16.40;99.90;;;;;;5005473;28;20034;-81
2021/05/11 02:27:52;;;;;;;9.57;2.10;;;16.50;99.90;;;;;;5005610;28;20038;-80
2021/05/11 02:30:18;;;;;;;6.18;2.10;;;16.50;99.90;;;;;;4998142;28;20022;-80
2021/05/11 02:32:44;;;;;;;4.97;2.15;;;16.40;99.90;;;;;;5000803;28;20158;-80
2021/05/11 02:35:13;;;;;;;3.90;1.77;;;16.40;99.90;;;;;;4995033;28;20508;-80
2021/05/11 02:37:39;;;;;;;6.70;1.73;;;16.40;99.90;;;;;;5001731;28;20030;-79
2021/05/11 02:40:08;;;;;;;3.63;1.85;;;16.40;99.90;;;;;;4992561;28;20125;-79
2021/05/11 02:42:34;;;;;;;4.45;2.25;;;16.40;99.90;;;;;;5002829;28;20058;-79
2021/05/11 02:45:00;;;;;;;3.88;2.13;;;16.40;99.90;;;;;;4990886;28;20042;-79
2021/05/11 02:47:26;;;;;;;5.47;2.38;;;16.40;99.90;;;;;;4992078;28;20081;-79
2021/05/11 02:49:51;;;;;;;3.33;1.85;;;16.40;99.90;;;;;;4992425;28;20121;-79
2021/05/11 02:52:17;;;;;;;3.28;2.10;;;16.40;99.90;;;;;;5005038;28;20502;-81
2021/05/11 02:54:44;;;;;;;5.03;2.30;;;16.40;99.90;;;;;;4991305;28;20372;-81
2021/05/11 02:57:09;;;;;;;3.38;2.30;;;16.40;99.90;;;;;;4994169;28;20518;-79
2021/05/11 02:59:36;;;;;;;7.90;2.22;;;16.40;99.90;;;;;;5004359;28;20030;-79
2021/05/11 03:02:02;;;;;;;4.90;2.40;;;16.40;99.90;;;;;;4991769;28;20041;-80
2021/05/11 03:04:28;;;;;;;4.57;2.22;;;16.40;99.90;;;;;;4992135;28;20030;-80
2021/05/11 03:06:59;;;;;;;4.57;2.60;;;16.40;99.90;;;;;;4992200;28;20521;-79
2021/05/11 03:09:26;;;;;;;8.53;2.20;;;16.40;99.90;;;;;;5005966;28;20055;-79
2021/05/11 03:11:52;;;;;;;6.88;2.47;;;16.40;99.90;;;;;;5000321;28;20053;-79
2021/05/11 03:14:18;;;;;;;3.58;1.98;;;16.40;99.90;;;;;;4995259;28;20030;-79
2021/05/11 03:16:45;;;;;;;2.05;1.60;;;16.30;99.90;;;;;;4991873;28;20487;-80
2021/05/11 03:19:10;;;;;;;4.88;2.00;;;16.40;99.90;;;;;;4990916;28;20047;-80
2021/05/11 03:21:36;;;;;;;3.72;1.95;;;16.40;99.90;;;;;;4999500;28;20053;-80
2021/05/11 03:24:03;;;;;;;12.50;1.98;;;16.50;99.90;;;;;;4991142;28;20077;-80
2021/05/11 03:26:29;;;;;;;8.38;2.30;;;16.50;99.90;;;;;;4991700;28;20057;-80
2021/05/11 03:28:54;;;;;;;5.28;2.22;;;16.60;99.90;;;;;;4991361;28;20034;-80
2021/05/11 03:31:20;;;;;;;4.65;1.98;;;16.60;99.90;;;;;;5003804;28;20041;-80
2021/05/11 03:33:46;;;;;;;5.28;2.15;;;16.70;99.90;;;;;;4991604;28;20034;-81
2021/05/11 03:36:12;;;;;;;5.15;2.28;;;16.90;99.90;;;;;;4990860;28;20037;-79
2021/05/11 03:38:37;;;;;;;6.18;2.13;;;16.90;99.90;;;;;;4991146;28;20127;-79
2021/05/11 03:41:03;;;;;;;4.03;2.40;;;17.10;99.90;;;;;;4990660;28;20131;-80
2021/05/11 03:43:38;;;;;;;5.97;2.17;;;17.10;99.90;;;;;;4991304;28;20035;-80
2021/05/11 03:46:10;;;;;;;6.53;2.28;;;17.10;99.90;;;;;;4993077;28;20051;-80
2021/05/11 03:48:35;;;;;;;5.97;2.17;;;17.20;99.90;;;;;;4991815;28;20050;-80
2021/05/11 03:51:05;;;;;;;2.47;2.10;;;17.20;99.90;;;;;;4991463;28;20073;-81
2021/05/11 03:53:34;;;;;;;3.92;2.20;;;17.20;99.90;;;;;;4981128;28;20694;-80
2021/05/11 03:56:00;;;;;;;10.90;2.70;;;17.30;99.90;;;;;;4990545;28;20038;-80
2021/05/11 03:58:27;;;;;;;6.32;2.30;;;17.40;99.90;;;;;;5003353;28;20030;-80
2021/05/11 04:00:53;;;;;;;3.67;2.40;;;17.40;99.90;;;;;;5000688;28;20107;-80
2021/05/11 04:03:19;;;;;;;7.90;3.53;;;17.50;99.90;;;;;;4993142;28;20150;-80
2021/05/11 04:05:46;;;;;;;11.18;2.70;;;17.60;99.90;;;;;;4992251;28;20067;-79
2021/05/11 04:08:36;;;;;;;8.60;2.92;;;17.60;99.90;;;;;;4992842;28;20026;-80
2021/05/11 04:14:13;;;;;;;8.98;2.53;;;17.90;99.90;;;;;;4993619;28;20525;-80
2021/05/11 04:16:41;;;;;;;6.25;2.10;;;18.00;99.90;;;;;;4992517;28;20479;-80
2021/05/11 04:19:07;;;;;;;6.95;2.47;;;18.00;99.90;;;;;;4993138;28;20469;-80
2021/05/11 04:21:33;;;;;;;7.20;2.47;;;18.10;99.90;;;;;;4993607;28;20541;-81
2021/05/11 04:23:59;;;;;;;14.98;2.92;;;18.20;99.90;;;;;;4992102;28;20074;-78
2021/05/11 04:26:24;;;;;;;5.13;2.13;;;18.20;99.90;;;;;;4993075;28;20042;-80
2021/05/11 04:28:51;;;;;;;9.32;2.63;;;18.30;99.90;;;;;;4991412;28;20093;-80
2021/05/11 04:31:19;;;;;;;13.55;2.50;;;18.40;99.90;;;;;;4991193;28;20053;-80
2021/05/11 04:33:45;;;;;;;8.02;2.67;;;18.40;99.90;;;;;;4993738;28;20059;-80
2021/05/11 04:36:12;;;;;;;3.17;2.38;;;18.50;99.90;;;;;;4993298;28;20096;-80
2021/05/11 04:38:38;;;;;;;7.55;2.83;;;18.70;99.90;;;;;;4993764;28;20058;-81
2021/05/11 04:41:07;;;;;;;8.45;2.53;;;18.90;99.90;;;;;;4993579;28;20113;-80
2021/05/11 04:43:35;;;;;;;6.53;2.65;;;19.30;99.90;;;;;;4993325;28;20125;-80
2021/05/11 04:46:25;;;;;;;3.83;2.40;;;19.70;99.90;;;;;;4976470;28;20149;-80
2021/05/11 04:48:52;;;;;;;11.77;2.38;;;20.20;99.90;;;;;;4993406;28;20512;-80
2021/05/11 04:51:19;;;;;;;3.05;2.22;;;20.80;99.90;;;;;;4992917;28;20034;-81
2021/05/11 04:53:46;;;;;;;8.63;2.67;;;21.20;99.90;;;;;;4994155;28;20022;-82
2021/05/11 04:56:12;;;;;;;8.60;2.30;;;21.60;99.90;;;;;;4976402;28;20035;-82
2021/05/11 04:58:39;;;;;;;9.10;2.58;;;22.00;99.30;;;;;;4993716;28;20115;-82
2021/05/11 05:01:05;;;;;;;8.10;2.80;;;22.60;98.10;;;;;;4993000;28;20515;-81
2021/05/11 05:03:40;;;;;;;11.30;2.58;;;23.00;98.10;;;;;;4992600;28;20057;-81
2021/05/11 05:06:06;;;;;;;5.82;2.10;;;23.50;97.50;;;;;;4997311;28;20084;-81
2021/05/11 05:08:32;;;;;;;17.02;2.40;;;23.90;96.60;;;;;;4975667;28;20078;-81
2021/05/11 05:10:57;;;;;;;3.25;1.90;;;24.20;96.40;;;;;;5007549;28;20495;-80
2021/05/11 05:13:24;;;;;;;6.47;2.55;;;24.50;96.40;;;;;;4993557;28;20123;-82
2021/05/11 05:15:58;;;;;;;4.07;2.20;;;24.70;95.80;;;;;;4993478;28;20034;-81
2021/05/11 05:18:26;;;;;;;10.40;2.00;;;25.10;95.50;;;;;;4982083;28;20080;-81
2021/05/11 05:20:52;;;;;;;5.55;2.42;;;25.40;94.90;;;;;;4993573;28;20031;-80
2021/05/11 05:23:20;;;;;;;6.45;1.98;;;25.70;94.80;;;;;;4999722;28;20490;-81
2021/05/11 05:25:51;;;;;;;3.75;2.00;;;26.00;94.40;;;;;;4994248;28;20099;-81
2021/05/11 05:28:17;;;;;;;8.77;2.20;;;26.00;94.60;;;;;;4975277;28;20051;-80
2021/05/11 05:30:43;;;;;;;7.55;1.83;;;26.10;94.50;;;;;;4990029;28;20041;-81
2021/05/11 05:33:09;;;;;;;16.65;2.08;;;26.30;94.00;;;;;;4993203;28;20038;-81
2021/05/11 05:35:34;;;;;;;8.07;2.65;;;26.50;94.00;;;;;;5001528;28;20088;-81
2021/05/11 05:38:00;;;;;;;7.75;2.05;;;26.70;93.30;;;;;;4997631;28;20731;-81
2021/05/11 05:40:26;;;;;;;5.53;2.47;;;26.80;93.10;;;;;;4993171;28;20036;-80
2021/05/11 05:42:52;;;;;;;13.75;2.78;;;27.00;93.20;;;;;;4993607;28;20065;-81
2021/05/11 05:45:19;;;;;;;10.30;2.17;;;27.20;92.60;;;;;;4993204;28;20121;-80
2021/05/11 05:47:51;;;;;;;7.90;2.35;;;27.50;92.20;;;;;;4992842;28;20121;-80
2021/05/11 05:50:29;;;;;;;8.13;2.17;;;27.70;92.30;;;;;;4992968;28;20084;-80
2021/05/11 05:53:04;;;;;;;9.00;2.13;;;27.90;91.40;;;;;;5004710;28;20133;-80
2021/05/11 05:55:30;;;;;;;10.95;2.47;;;28.30;91.10;;;;;;4991895;28;20381;-80
2021/05/11 05:57:57;;;;;;;4.80;2.40;;;28.20;91.30;;;;;;4993489;28;20101;-81
2021/05/11 06:00:24;;;;;;;6.28;2.35;;;28.40;90.90;;;;;;4992958;28;20027;-80
2021/05/11 06:02:52;;;;;;;11.00;2.38;;;28.60;90.90;;;;;;4992840;28;20033;-80
2021/05/11 06:05:19;;;;;;;8.73;2.30;;;28.60;90.70;;;;;;4992445;28;20054;-81
2021/05/11 06:07:45;;;;;;;7.60;2.47;;;28.50;90.70;;;;;;4993221;28;20034;-81
2021/05/11 06:10:11;;;;;;;5.85;2.78;;;28.30;90.80;;;;;;4992175;28;20035;-80
2021/05/11 06:17:34;;;;;;;10.45;2.83;;;28.80;90.90;;;;;;4992890;28;20126;-81
2021/05/11 06:20:00;;;;;;;13.32;2.40;;;29.20;90.90;;;;;;4992404;28;20019;-81
2021/05/11 06:22:26;;;;;;;12.38;2.35;;;29.40;90.20;;;;;;4992740;28;20041;-82
2021/05/11 06:24:52;;;;;;;7.63;2.50;;;29.60;90.40;;;;;;4992924;28;20038;-81
2021/05/11 06:27:19;;;;;;;13.00;2.88;;;30.40;89.00;;;;;;4991860;28;20035;-80
2021/05/11 06:29:46;;;;;;;7.38;2.38;;;30.90;88.20;;;;;;4991799;28;20398;-80
2021/05/11 06:32:12;;;;;;;8.73;2.47;;;31.40;86.50;;;;;;4991802;28;20038;-81
2021/05/11 06:34:44;;;;;;;9.57;2.20;;;31.60;86.30;;;;;;4992771;28;20026;-81
2021/05/11 06:37:09;;;;;;;14.95;2.00;;;31.90;85.20;;;;;;4995356;28;20029;-80
2021/05/11 06:39:36;;;;;;;10.90;2.30;;;32.00;83.90;;;;;;4982293;28;20488;-80
2021/05/11 06:42:02;;;;;;;13.95;2.10;;;31.60;84.20;;;;;;4992545;28;20041;-80
2021/05/11 06:55:21;;;;;;;11.30;2.30;;;29.20;88.30;;;;;;5188768;22;20073;-85
2021/05/11 07:10:07;;;;;;;16.30;3.17;;;26.30;92.30;;;;;;5127886;23;20302;-85
2021/05/11 07:15:17;;;;;;;12.02;3.60;;;26.70;93.30;;;;;;5008669;28;20058;-86
2021/05/11 07:17:43;;;;;;;13.75;3.30;;;27.00;92.90;;;;;;5008376;28;20038;-85
2021/05/11 07:20:10;;;;;;;13.63;2.92;;;27.10;92.40;;;;;;5020585;28;20034;-86
2021/05/11 07:22:35;;;;;;;7.75;2.55;;;27.20;92.00;;;;;;5008806;28;20034;-87
2021/05/11 07:25:06;;;;;;;9.63;3.20;;;27.20;92.20;;;;;;5008796;28;20054;-86
2021/05/11 07:27:50;;;;;;;11.48;3.00;;;27.50;91.90;;;;;;5008855;28;20045;-87
2021/05/11 07:30:25;;;;;;;108.45;29.83;;;27.60;91.60;;;;;;5012744;28;20086;-86
2021/05/11 07:36:48;;;;;;;6.47;2.90;;;27.60;92.10;;;;;;5056108;28;20062;-84
2021/05/11 08:23:18;;;;;;;11.95;3.05;;;28.40;91.70;;;;;;5183906;23;20452;-87
2021/05/11 08:38:30;;;;;;;12.02;2.58;;;28.20;90.50;;;;;;5573429;23;20050;-85
2021/05/11 09:25:01;;;;;;;11.35;3.33;;;26.80;91.80;;;;;;5034612;28;20040;-89
2021/05/11 09:27:42;;;;;;;11.88;2.85;;;26.80;91.70;;;;;;5027943;28;20050;-81
2021/05/11 10:49:31;;;;;;;13.98;2.92;;;26.80;93.10;;;;;;5023297;28;20091;-77
2021/05/11 10:52:13;;;;;;;7.47;3.03;;;26.60;93.10;;;;;;5018548;28;20034;-92
2021/05/11 10:55:22;;;;;;;14.98;3.42;;;26.80;93.90;;;;;;5033023;28;20034;-77
2021/05/11 10:58:04;;;;;;;16.95;3.90;;;26.90;95.40;;;;;;5029974;28;20056;-79
2021/05/11 11:00:44;;;;;;;11.93;3.47;;;26.70;95.10;;;;;;5030651;28;20038;-74
2021/05/11 11:05:54;;;;;;;9.93;3.25;;;26.40;95.90;;;;;;5028573;28;20121;-81
2021/05/11 11:08:43;;;;;;;7.57;3.72;;;26.20;96.30;;;;;;5028068;28;20053;-92
2021/05/11 11:11:17;;;;;;;14.20;3.67;;;26.20;96.20;;;;;;5035075;28;20037;-78
2021/05/11 11:13:53;;;;;;;13.13;4.72;;;26.30;96.60;;;;;;5032935;28;20025;-93
2021/05/11 11:16:21;;;;;;;19.67;3.50;;;26.40;96.80;;;;;;5031641;28;20036;-85
2021/05/11 11:18:48;;;;;;;7.30;3.15;;;26.40;96.10;;;;;;5035871;28;20514;-81
2021/05/11 11:23:56;;;;;;;11.10;3.53;;;26.40;95.50;;;;;;5025159;28;20033;-83
2021/05/11 11:26:23;;;;;;;9.13;3.80;;;26.40;96.20;;;;;;5025449;28;20060;-83
2021/05/11 11:28:49;;;;;;;10.77;3.53;;;26.30;96.70;;;;;;5026143;28;20034;-89
2021/05/11 11:31:29;;;;;;;15.45;3.95;;;26.20;96.50;;;;;;5021496;28;20083;-90
2021/05/11 11:34:16;;;;;;;10.80;3.90;;;26.10;97.20;;;;;;5032368;28;20068;-81
2021/05/11 11:36:46;;;;;;;18.73;3.72;;;26.10;98.00;;;;;;5032617;28;20470;-75
2021/05/11 11:39:20;;;;;;;8.63;3.13;;;26.30;97.70;;;;;;5026249;28;20165;-76
2021/05/11 11:41:50;;;;;;;10.80;3.53;;;26.40;97.10;;;;;;5034943;28;20028;-90
2021/05/11 11:44:20;;;;;;;20.40;3.80;;;26.50;97.30;;;;;;5032605;28;20065;-80
2021/05/11 11:46:58;;;;;;;14.57;4.10;;;26.50;97.40;;;;;;5032877;28;20038;-83
2021/05/11 11:49:29;;;;;;;12.43;3.20;;;26.40;97.20;;;;;;5030599;28;20108;-87
2021/05/11 11:52:04;;;;;;;7.20;3.67;;;26.20;97.20;;;;;;5032213;28;20037;-87
2021/05/11 11:54:40;;;;;;;12.52;3.95;;;26.10;97.40;;;;;;5021929;28;20037;-80
2021/05/11 12:00:19;;;;;;;15.20;3.70;;;26.00;97.50;;;;;;5031391;28;20036;-88
2021/05/11 12:02:56;;;;;;;12.27;4.00;;;26.00;97.60;;;;;;5031642;28;20029;-90
2021/05/11 12:05:23;;;;;;;19.05;4.22;;;26.00;97.80;;;;;;5034007;28;20092;-91
2021/05/11 12:08:35;;;;;;;22.30;3.95;;;26.00;97.90;;;;;;5031580;28;20568;-86
2021/05/11 12:10:38;;;;;;;8.25;3.80;;;26.00;98.30;;;;;;5019666;28;20390;-82
2021/05/11 12:13:07;;;;;;;17.90;3.80;;;26.10;98.90;;;;;;5034610;28;20033;-86
2021/05/11 12:15:33;;;;;;;14.60;4.03;;;26.10;99.20;;;;;;5033084;28;20041;-89
2021/05/11 12:18:10;;;;;;;13.07;4.03;;;25.90;99.30;;;;;;5031116;28;20033;-84
2021/05/11 12:20:36;;;;;;;13.48;4.32;;;25.70;99.90;;;;;;5031896;28;20085;-88
2021/05/11 12:23:18;;;;;;;16.55;4.38;;;25.50;99.90;;;;;;5022679;28;20071;-83
2021/05/11 12:25:54;;;;;;;;;;;25.40;99.90;;;;;;5035093;28;20048;-78
2021/05/11 12:28:36;;;;;;;17.92;4.22;;;25.30;99.90;;;;;;5027665;28;19909;-81
2021/05/11 12:31:02;;;;;;;;;;;25.20;99.90;;;;;;5025027;28;20716;-75
2021/05/11 12:33:39;;;;;;;17.20;4.65;;;25.00;99.90;;;;;;5032044;28;19955;-77
2021/05/11 12:36:27;;;;;;;16.48;4.18;;;24.90;99.90;;;;;;5033384;28;20030;-83
2021/05/11 12:39:22;;;;;;;106.70;6.38;;;24.90;99.90;;;;;;5019445;28;20117;-78
2021/05/11 12:41:47;;;;;;;11.77;4.22;;;24.90;99.90;;;;;;5031871;28;20025;-78
2021/05/11 12:44:28;;;;;;;17.83;4.43;;;24.90;99.90;;;;;;5032404;28;20103;-80
2021/05/11 12:47:00;;;;;;;16.33;3.83;;;24.80;99.90;;;;;;5015089;28;20077;-79
2021/05/11 12:49:27;;;;;;;11.23;3.63;;;24.80;99.90;;;;;;5031753;28;20037;-80
2021/05/11 12:51:55;;;;;;;12.98;3.95;;;24.70;99.90;;;;;;5029757;28;20057;-80
2021/05/11 12:54:29;;;;;;;17.83;4.82;;;24.50;99.90;;;;;;5033278;28;20024;-80
2021/05/11 13:15:56;;;;;;;23.17;4.90;;;23.80;99.90;;;;;;5031094;28;20505;-80
2021/05/11 13:26:33;;;;;;;18.02;4.15;;;23.90;99.90;;;;;;5025248;28;20413;-81
2021/05/11 13:29:17;;;;;;;19.90;4.60;;;24.00;99.90;;;;;;5022606;28;20133;-80
2021/05/11 13:31:50;;;;;;;9.48;3.85;;;24.10;99.90;;;;;;5028579;28;20037;-79
2021/05/11 13:34:19;;;;;;;20.13;4.10;;;24.10;99.90;;;;;;5008716;28;20490;-79
2021/05/11 13:36:45;;;;;;;13.63;3.67;;;24.10;99.90;;;;;;5030759;28;20044;-80
2021/05/11 13:39:11;;;;;;;16.55;4.95;;;24.10;99.90;;;;;;5030744;28;20026;-81
2021/05/11 13:41:38;;;;;;;16.08;4.13;;;24.00;99.90;;;;;;5031611;28;20029;-80
2021/05/11 13:44:04;;;;;;;19.80;4.07;;;24.00;99.90;;;;;;5031195;28;20101;-80
2021/05/11 13:46:31;;;;;;;21.85;4.40;;;24.00;99.90;;;;;;5030723;28;20037;-79
2021/05/11 13:48:57;;;;;;;11.63;4.05;;;23.90;99.90;;;;;;5019300;28;20025;-81
2021/05/11 13:51:23;;;;;;;17.52;4.95;;;24.00;99.90;;;;;;5032063;28;20083;-80
2021/05/11 13:54:15;;;;;;;25.67;4.32;;;24.10;99.90;;;;;;5031745;28;20077;-79
2021/05/11 13:56:46;;;;;;;19.98;4.78;;;24.20;99.90;;;;;;5030279;28;20131;-80
2021/05/11 14:04:23;;;;;;;20.67;5.70;;;24.30;99.90;;;;;;5031861;28;20033;-79
2021/05/11 14:06:49;;;;;;;14.20;4.43;;;24.30;99.90;;;;;;5031381;28;20095;-80
2021/05/11 14:09:15;;;;;;;12.07;4.55;;;24.40;99.90;;;;;;5028304;28;20029;-81
2021/05/11 14:11:42;;;;;;;19.13;5.05;;;24.50;99.90;;;;;;5033343;28;20036;-82
2021/05/11 14:14:10;;;;;;;18.20;5.75;;;24.60;99.90;;;;;;5023940;28;20052;-82
2021/05/11 14:16:36;;;;;;;16.70;5.07;;;24.80;99.90;;;;;;5031505;28;20029;-79
2021/05/11 14:19:03;;;;;;;15.68;5.13;;;24.90;99.90;;;;;;5025922;28;20026;-78
2021/05/11 14:21:28;;;;;;;19.73;4.25;;;25.00;99.90;;;;;;5031038;28;20072;-85
2021/05/11 14:23:56;;;;;;;28.80;6.80;;;25.10;99.90;;;;;;5031535;28;20042;-82
2021/05/11 14:26:24;;;;;;;23.40;5.45;;;25.10;99.90;;;;;;5032260;28;20033;-79
2021/05/11 14:28:50;;;;;;;11.00;4.28;;;25.20;99.90;;;;;;5021547;28;20038;-81
2021/05/11 14:31:15;;;;;;;16.73;4.88;;;25.10;99.90;;;;;;5027308;28;20496;-84
2021/05/11 14:33:41;;;;;;;10.75;3.65;;;25.10;99.90;;;;;;5026326;28;20034;-80
2021/05/11 14:36:07;;;;;;;13.55;4.53;;;25.00;99.90;;;;;;5027185;28;20033;-89
2021/05/11 14:38:37;;;;;;;9.35;4.25;;;25.10;99.90;;;;;;5029051;28;20461;-88
2021/05/11 14:41:04;;;;;;;9.13;3.40;;;25.10;99.90;;;;;;5031439;28;20057;-82
2021/05/11 14:43:31;;;;;;;9.23;3.42;;;25.10;99.90;;;;;;5031319;28;20056;-78
2021/05/11 14:46:05;;;;;;;10.35;3.28;;;25.10;99.60;;;;;;5030285;28;20080;-79
2021/05/11 14:48:31;;;;;;;12.10;3.83;;;25.10;99.50;;;;;;5027768;28;20113;-83
2021/05/11 14:50:57;;;;;;;10.52;3.72;;;25.10;99.10;;;;;;5011745;28;20450;-82
2021/05/11 14:53:24;;;;;;;19.83;3.50;;;25.10;99.40;;;;;;5028914;28;20039;-86
2021/05/11 14:55:50;;;;;;;10.55;3.78;;;25.00;99.50;;;;;;5028004;28;20068;-78
2021/05/11 14:58:15;;;;;;;18.73;3.80;;;25.00;99.60;;;;;;5030326;28;20443;-84
2021/05/11 15:00:41;;;;;;;8.55;3.53;;;25.00;99.60;;;;;;5021123;28;20509;-78
2021/05/11 15:03:10;;;;;;;11.63;3.53;;;24.90;99.90;;;;;;5022277;28;20053;-78
2021/05/11 15:05:36;;;;;;;11.15;4.10;;;24.70;99.90;;;;;;5030481;28;20620;-79
2021/05/11 15:08:02;;;;;;;18.70;3.78;;;24.70;99.90;;;;;;5021803;28;20037;-78
2021/05/11 15:10:28;;;;;;;19.60;3.97;;;24.70;99.80;;;;;;5028676;28;20385;-78
2021/05/11 15:12:53;;;;;;;22.38;3.95;;;24.60;99.90;;;;;;5026380;28;20496;-81
2021/05/11 15:15:20;;;;;;;11.88;3.60;;;24.50;99.90;;;;;;5031970;28;20025;-85
2021/05/11 15:20:14;;;;;;;17.92;3.70;;;24.30;99.90;;;;;;5028467;28;20045;-85
2021/05/11 15:22:41;;;;;;;21.30;4.28;;;24.20;99.90;;;;;;5019051;28;20422;-76
2021/05/11 15:25:08;;;;;;;12.88;4.00;;;24.20;99.90;;;;;;5023149;28;20501;-80
2021/05/11 15:27:35;;;;;;;9.88;4.05;;;24.10;99.90;;;;;;5031735;28;20044;-79
2021/05/11 15:30:03;;;;;;;16.20;5.20;;;24.10;99.90;;;;;;5031043;28;20021;-76
2021/05/11 15:32:42;;;;;;;15.57;4.88;;;24.20;99.90;;;;;;5031458;28;20040;-81
2021/05/11 15:35:13;;;;;;;15.95;4.20;;;24.20;99.90;;;;;;5028859;28;20044;-80
2021/05/11 15:37:41;;;;;;;13.10;4.55;;;24.10;99.90;;;;;;5029391;28;20042;-75
2021/05/11 15:40:12;;;;;;;17.52;4.80;;;24.20;99.90;;;;;;5028282;28;20022;-76
2021/05/11 15:42:38;;;;;;;21.58;5.72;;;24.20;99.90;;;;;;5031274;28;20121;-75
2021/05/11 15:45:05;;;;;;;15.30;4.60;;;24.10;99.90;;;;;;5031207;28;20101;-79
2021/05/11 15:47:30;;;;;;;16.73;4.88;;;24.10;99.90;;;;;;5031690;28;20037;-80
2021/05/11 15:49:56;;;;;;;13.88;4.55;;;24.00;99.90;;;;;;5031172;28;20033;-76
2021/05/11 15:52:22;;;;;;;18.33;5.85;;;23.90;99.90;;;;;;5030742;28;20040;-75
2021/05/11 15:54:51;;;;;;;19.65;5.05;;;23.80;99.90;;;;;;5034824;28;20068;-76
2021/05/11 15:57:17;;;;;;;16.77;6.07;;;23.70;99.90;;;;;;5030993;28;20041;-79
2021/05/11 15:59:44;;;;;;;15.07;5.43;;;23.60;99.90;;;;;;5034749;28;20037;-74
2021/05/11 16:02:10;;;;;;;19.05;4.93;;;23.60;99.90;;;;;;5031091;28;20033;-78
2021/05/11 16:04:36;;;;;;;17.67;5.50;;;23.50;99.90;;;;;;5034381;28;20028;-75
2021/05/11 16:07:03;;;;;;;24.92;5.60;;;23.50;99.90;;;;;;5033819;28;20029;-78
2021/05/11 16:09:28;;;;;;;20.75;5.38;;;23.40;99.90;;;;;;5031454;28;20029;-75
2021/05/11 16:11:54;;;;;;;20.40;5.57;;;23.30;99.90;;;;;;5033769;28;20371;-75
2021/05/11 16:14:20;;;;;;;27.65;5.35;;;23.10;99.90;;;;;;5034314;28;20494;-78
2021/05/11 16:16:46;;;;;;;14.50;5.85;;;23.00;99.90;;;;;;5024714;28;20045;-76
2021/05/11 16:19:12;;;;;;;11.00;5.18;;;22.90;99.90;;;;;;5033044;28;20139;-76
2021/05/11 16:21:38;;;;;;;19.80;5.85;;;22.80;99.90;;;;;;5029905;28;20034;-76
2021/05/11 16:24:04;;;;;;;30.20;5.57;;;22.60;99.90;;;;;;5025371;28;20187;-74
2021/05/11 16:26:30;;;;;;;22.23;6.20;;;22.50;99.90;;;;;;5032310;28;20114;-74
2021/05/11 16:28:56;;;;;;;15.60;5.53;;;22.30;99.90;;;;;;5029763;28;20030;-75
2021/05/11 16:31:23;;;;;;;22.17;5.28;;;22.20;99.90;;;;;;5021834;28;20029;-79
2021/05/11 16:33:49;;;;;;;19.60;5.85;;;22.20;99.90;;;;;;5028824;28;21368;-73
2021/05/11 16:36:15;;;;;;;26.60;5.25;;;22.20;99.90;;;;;;5030330;28;20033;-75
2021/05/11 16:38:42;;;;;;;11.82;4.78;;;22.10;99.90;;;;;;5021824;28;20025;-74
2021/05/11 16:41:08;;;;;;;16.17;5.22;;;22.10;99.90;;;;;;5026998;28;20046;-74
2021/05/11 16:43:34;;;;;;;17.58;7.53;;;22.10;99.90;;;;;;5032104;28;20104;-88
2021/05/11 16:46:04;;;;;;;31.05;7.07;;;22.00;99.90;;;;;;5023874;28;20092;-88
2021/05/11 16:48:31;;;;;;;22.92;6.78;;;22.00;99.90;;;;;;5032194;28;20121;-75
2021/05/11 16:50:57;;;;;;;19.23;5.50;;;21.90;99.90;;;;;;5028773;28;20032;-82
2021/05/11 16:53:23;;;;;;;15.88;5.75;;;21.90;99.90;;;;;;5030083;28;20095;-85
2021/05/11 16:55:49;;;;;;;16.77;5.05;;;21.90;99.90;;;;;;5032783;28;20026;-81
2021/05/11 16:58:15;;;;;;;18.48;6.10;;;21.90;99.90;;;;;;5028204;28;20441;-87
2021/05/11 17:00:42;;;;;;;24.23;6.80;;;21.80;99.90;;;;;;5028885;28;20041;-74
2021/05/11 17:03:07;;;;;;;16.33;6.43;;;21.60;99.90;;;;;;5025729;28;20033;-79
2021/05/11 17:05:34;;;;;;;23.13;5.97;;;21.40;99.90;;;;;;5040611;28;20123;-81
2021/05/11 17:08:02;;;;;;;18.67;5.78;;;21.40;99.90;;;;;;5018659;28;20084;-81
2021/05/11 17:10:30;;;;;;;21.45;6.75;;;21.40;99.90;;;;;;5026455;28;20041;-76
2021/05/11 17:12:58;;;;;;;22.83;6.40;;;21.40;99.90;;;;;;5023420;28;20017;-80
2021/05/11 17:15:26;;;;;;;33.97;8.40;;;21.30;99.90;;;;;;5029136;28;20022;-78
2021/05/11 17:17:52;;;;;;;25.08;6.93;;;21.30;99.90;;;;;;5032066;28;20034;-77
2021/05/11 17:20:23;;;;;;;20.25;7.40;;;21.30;99.90;;;;;;5023601;28;20072;-86
2021/05/11 17:22:49;;;;;;;22.17;8.07;;;21.20;99.90;;;;;;5034339;28;20083;-75
2021/05/11 17:25:20;;;;;;;25.60;8.10;;;21.10;99.90;;;;;;5032996;28;20037;-85
2021/05/11 17:27:47;;;;;;;24.58;7.50;;;21.00;99.90;;;;;;5032500;28;20043;-76
2021/05/11 17:30:14;;;;;;;28.77;7.68;;;21.10;99.90;;;;;;5032503;28;20032;-76
2021/05/11 17:32:41;;;;;;;22.00;7.10;;;21.00;99.90;;;;;;5027817;28;20061;-80
2021/05/11 17:35:11;;;;;;;24.02;7.57;;;21.00;99.90;;;;;;5029013;28;20527;-78
2021/05/11 17:37:37;;;;;;;22.90;8.95;;;20.90;99.90;;;;;;5026058;28;20073;-78
2021/05/11 17:40:07;;;;;;;25.35;8.93;;;20.90;99.90;;;;;;5028218;28;20053;-77
2021/05/11 17:42:33;;;;;;;20.58;8.32;;;20.80;99.90;;;;;;5026079;28;20061;-83
2021/05/11 17:44:59;;;;;;;20.50;7.72;;;20.70;99.90;;;;;;5022870;28;20041;-82
2021/05/11 17:47:25;;;;;;;29.10;8.52;;;20.60;99.90;;;;;;5016292;28;20022;-83
2021/05/11 17:49:52;;;;;;;20.10;7.47;;;20.50;99.90;;;;;;5026565;28;20037;-83
2021/05/11 17:52:18;;;;;;;31.15;8.88;;;20.40;99.90;;;;;;5023370;28;20041;-82
2021/05/11 17:54:45;;;;;;;19.33;8.40;;;20.30;99.90;;;;;;5024315;28;20105;-81
2021/05/11 17:57:11;;;;;;;26.52;8.85;;;20.20;99.90;;;;;;5016728;28;20136;-82
2021/05/11 17:59:37;;;;;;;31.85;8.55;;;20.10;99.90;;;;;;5024887;28;20449;-82
2021/05/11 18:02:02;;;;;;;34.50;10.15;;;19.90;99.90;;;;;;5030187;28;20147;-85
2021/05/11 18:04:29;;;;;;;40.13;10.82;;;19.70;99.90;;;;;;5027581;28;20120;-84